sensor_id;sensor_type;location;lat;lon;timestamp;P1;durP1;ratioP1;P2;durP2;ratioP2
59986;SDS011;46181;51.498;5.392;2022-10-16T00:03:47;6.927999;;;2.62;;
59986;SDS011;46181;51.498;5.392;2022-10-16T00:08:17;6.224;;;2.784;;
59986;SDS011;46181;51.498;5.392;2022-10-16T00:12:47;7.024;;;2.8;;
59986;SDS011;46181;51.498;5.392;2022-10-16T00:17:17;5.988;;;2.52;;
59986;SDS011;46181;51.498;5.392;2022-10-16T00:21:47;4.432;;;2.556;;
59986;SDS011;46181;51.498;5.392;2022-10-16T00:26:17;4.412001;;;2.208;;
59986;SDS011;46181;51.498;5.392;2022-10-16T00:30:47;5.628;;;2.652;;
59986;SDS011;46181;51.498;5.392;2022-10-16T00:35:17;4.355999;;;2.272;;
59986;SDS011;46181;51.498;5.392;2022-10-16T00:39:47;6.3;;;2.599999;;
59986;SDS011;46181;51.498;5.392;2022-10-16T00:48:48;5.08;;;2.32;;
59986;SDS011;46181;51.498;5.392;2022-10-16T00:53:17;7.4;;;3.208;;
59986;SDS011;46181;51.498;5.392;2022-10-16T00:57:47;4.768;;;2.516;;
59986;SDS011;46181;51.498;5.392;2022-10-16T01:02:17;3.496;;;2.059999;;
59986;SDS011;46181;51.498;5.392;2022-10-16T01:06:50;5.96;;;2.392;;
59986;SDS011;46181;51.498;5.392;2022-10-16T01:11:19;6.236;;;2.108;;
59986;SDS011;46181;51.498;5.392;2022-10-16T01:15:48;4.579999;;;2.14;;
59986;SDS011;46181;51.498;5.392;2022-10-16T01:20:20;4.064;;;2.108;;
59986;SDS011;46181;51.498;5.392;2022-10-16T01:24:48;4.883999;;;2.16;;
59986;SDS011;46181;51.498;5.392;2022-10-16T01:29:18;5.052;;;1.956;;
59986;SDS011;46181;51.498;5.392;2022-10-16T01:33:48;4.259999;;;1.956;;
59986;SDS011;46181;51.498;5.392;2022-10-16T01:38:19;5.396;;;2.22;;
59986;SDS011;46181;51.498;5.392;2022-10-16T01:42:48;7.747999;;;2.264;;
59986;SDS011;46181;51.498;5.392;2022-10-16T01:47:17;4.339999;;;2.052;;
59986;SDS011;46181;51.498;5.392;2022-10-16T01:51:48;3.583999;;;1.92;;
59986;SDS011;46181;51.498;5.392;2022-10-16T01:56:17;5.984;;;1.888;;
59986;SDS011;46181;51.498;5.392;2022-10-16T02:00:47;4.736001;;;2.256;;
59986;SDS011;46181;51.498;5.392;2022-10-16T02:05:18;4.568;;;1.92;;
59986;SDS011;46181;51.498;5.392;2022-10-16T02:09:47;5.404;;;1.948;;
59986;SDS011;46181;51.498;5.392;2022-10-16T02:14:17;3.735999;;;1.632;;
59986;SDS011;46181;51.498;5.392;2022-10-16T02:18:47;4.92;;;1.98;;
59986;SDS011;46181;51.498;5.392;2022-10-16T02:23:19;3.78;;;1.612;;
59986;SDS011;46181;51.498;5.392;2022-10-16T02:27:48;3.552;;;1.676;;
59986;SDS011;46181;51.498;5.392;2022-10-16T02:32:19;3.911999;;;1.552;;
59986;SDS011;46181;51.498;5.392;2022-10-16T02:36:47;5.872;;;1.572;;
59986;SDS011;46181;51.498;5.392;2022-10-16T02:41:17;2.956001;;;1.584;;
59986;SDS011;46181;51.498;5.392;2022-10-16T02:45:47;3.456;;;1.34;;
59986;SDS011;46181;51.498;5.392;2022-10-16T02:50:17;2.78;;;1.316;;
59986;SDS011;46181;51.498;5.392;2022-10-16T02:54:47;7.868;;;2.207999;;
59986;SDS011;46181;51.498;5.392;2022-10-16T02:59:17;2.788;;;1.412;;
59986;SDS011;46181;51.498;5.392;2022-10-16T03:03:48;4.340001;;;1.396;;
59986;SDS011;46181;51.498;5.392;2022-10-16T03:08:17;5.172;;;1.58;;
59986;SDS011;46181;51.498;5.392;2022-10-16T03:12:47;4.144;;;1.208;;
59986;SDS011;46181;51.498;5.392;2022-10-16T03:17:17;4.664;;;1.448;;
59986;SDS011;46181;51.498;5.392;2022-10-16T03:21:47;3.432;;;1.404;;
59986;SDS011;46181;51.498;5.392;2022-10-16T03:26:17;3.616;;;1.3;;
59986;SDS011;46181;51.498;5.392;2022-10-16T03:30:47;2.944;;;1.28;;
59986;SDS011;46181;51.498;5.392;2022-10-16T03:35:17;4.960001;;;1.336;;
59986;SDS011;46181;51.498;5.392;2022-10-16T03:39:47;4.796001;;;1.332;;
59986;SDS011;46181;51.498;5.392;2022-10-16T03:44:17;5.519999;;;1.34;;
59986;SDS011;46181;51.498;5.392;2022-10-16T03:48:47;3.379999;;;1.24;;
59986;SDS011;46181;51.498;5.392;2022-10-16T03:53:17;2.68;;;1.364;;
59986;SDS011;46181;51.498;5.392;2022-10-16T03:57:47;3;;;1.48;;
59986;SDS011;46181;51.498;5.392;2022-10-16T04:02:17;2.4;;;1.2;;
59986;SDS011;46181;51.498;5.392;2022-10-16T04:06:47;2.72;;;1.472;;
59986;SDS011;46181;51.498;5.392;2022-10-16T04:11:17;5.688001;;;1.476;;
59986;SDS011;46181;51.498;5.392;2022-10-16T04:15:48;2.996;;;1.452;;
59986;SDS011;46181;51.498;5.392;2022-10-16T04:20:17;4.436;;;1.64;;
59986;SDS011;46181;51.498;5.392;2022-10-16T04:24:47;3.931999;;;1.552;;
59986;SDS011;46181;51.498;5.392;2022-10-16T04:29:17;4.256001;;;1.752;;
59986;SDS011;46181;51.498;5.392;2022-10-16T04:33:47;3.968001;;;1.684;;
59986;SDS011;46181;51.498;5.392;2022-10-16T04:38:17;2.82;;;1.524;;
59986;SDS011;46181;51.498;5.392;2022-10-16T04:42:47;6.492;;;1.76;;
59986;SDS011;46181;51.498;5.392;2022-10-16T04:47:18;3.236;;;1.752;;
59986;SDS011;46181;51.498;5.392;2022-10-16T04:51:48;4.348;;;1.916;;
59986;SDS011;46181;51.498;5.392;2022-10-16T04:56:17;4.619999;;;1.8;;
59986;SDS011;46181;51.498;5.392;2022-10-16T05:00:47;4.284;;;1.808;;
59986;SDS011;46181;51.498;5.392;2022-10-16T05:05:17;3.955999;;;1.684;;
59986;SDS011;46181;51.498;5.392;2022-10-16T05:09:47;3.876;;;1.708;;
59986;SDS011;46181;51.498;5.392;2022-10-16T05:14:18;3.728;;;1.604;;
59986;SDS011;46181;51.498;5.392;2022-10-16T05:18:48;3.796001;;;1.556;;
59986;SDS011;46181;51.498;5.392;2022-10-16T05:23:17;5.364;;;1.7;;
59986;SDS011;46181;51.498;5.392;2022-10-16T05:27:50;3.852001;;;1.484;;
59986;SDS011;46181;51.498;5.392;2022-10-16T05:32:18;4.74;;;1.388;;
59986;SDS011;46181;51.498;5.392;2022-10-16T05:36:47;4.564001;;;1.628;;
59986;SDS011;46181;51.498;5.392;2022-10-16T05:41:17;4.816;;;1.788;;
59986;SDS011;46181;51.498;5.392;2022-10-16T05:45:47;4.148;;;1.592;;
59986;SDS011;46181;51.498;5.392;2022-10-16T05:50:18;4.219999;;;1.44;;
59986;SDS011;46181;51.498;5.392;2022-10-16T05:54:48;5.36;;;1.632;;
59986;SDS011;46181;51.498;5.392;2022-10-16T05:59:18;4.356;;;1.76;;
59986;SDS011;46181;51.498;5.392;2022-10-16T06:03:47;4.184;;;1.732;;
59986;SDS011;46181;51.498;5.392;2022-10-16T06:08:18;3.864;;;1.552;;
59986;SDS011;46181;51.498;5.392;2022-10-16T06:12:47;3.916;;;1.78;;
59986;SDS011;46181;51.498;5.392;2022-10-16T06:17:17;5.012001;;;1.8;;
59986;SDS011;46181;51.498;5.392;2022-10-16T06:21:47;8.104001;;;1.992;;
59986;SDS011;46181;51.498;5.392;2022-10-16T06:26:18;3.868001;;;1.728;;
59986;SDS011;46181;51.498;5.392;2022-10-16T06:30:48;4.108;;;1.62;;
59986;SDS011;46181;51.498;5.392;2022-10-16T06:35:18;5.428;;;1.968;;
59986;SDS011;46181;51.498;5.392;2022-10-16T06:39:47;4.283999;;;1.616;;
59986;SDS011;46181;51.498;5.392;2022-10-16T06:44:17;5.648001;;;1.624;;
59986;SDS011;46181;51.498;5.392;2022-10-16T06:48:47;3.927999;;;1.596;;
59986;SDS011;46181;51.498;5.392;2022-10-16T06:53:17;6.091999;;;1.824;;
59986;SDS011;46181;51.498;5.392;2022-10-16T06:57:47;3.888001;;;1.791999;;
59986;SDS011;46181;51.498;5.392;2022-10-16T07:02:18;3.268001;;;1.648;;
59986;SDS011;46181;51.498;5.392;2022-10-16T07:06:48;3.648001;;;1.776;;
59986;SDS011;46181;51.498;5.392;2022-10-16T07:11:18;5.823999;;;1.8;;
59986;SDS011;46181;51.498;5.392;2022-10-16T07:15:48;5.352;;;1.864;;
59986;SDS011;46181;51.498;5.392;2022-10-16T07:20:18;5.271999;;;1.74;;
59986;SDS011;46181;51.498;5.392;2022-10-16T07:24:48;6.692001;;;1.724;;
59986;SDS011;46181;51.498;5.392;2022-10-16T07:29:19;4.700001;;;1.644;;
59986;SDS011;46181;51.498;5.392;2022-10-16T07:33:48;4.620001;;;1.528;;
59986;SDS011;46181;51.498;5.392;2022-10-16T07:38:18;3.396;;;1.5;;
59986;SDS011;46181;51.498;5.392;2022-10-16T07:42:48;5.820001;;;1.48;;
59986;SDS011;46181;51.498;5.392;2022-10-16T07:47:17;3.091999;;;1.464;;
59986;SDS011;46181;51.498;5.392;2022-10-16T07:51:47;4.231999;;;1.736;;
59986;SDS011;46181;51.498;5.392;2022-10-16T07:56:18;3.62;;;1.58;;
59986;SDS011;46181;51.498;5.392;2022-10-16T08:00:48;4.707999;;;1.6;;
59986;SDS011;46181;51.498;5.392;2022-10-16T08:05:18;3.632;;;1.568;;
59986;SDS011;46181;51.498;5.392;2022-10-16T08:09:48;5.052;;;1.988001;;
59986;SDS011;46181;51.498;5.392;2022-10-16T08:14:18;5.275999;;;2.812;;
59986;SDS011;46181;51.498;5.392;2022-10-16T08:18:48;3.652;;;1.356;;
59986;SDS011;46181;51.498;5.392;2022-10-16T08:23:18;4.9;;;1.208;;
59986;SDS011;46181;51.498;5.392;2022-10-16T08:27:48;3.868001;;;1.3;;
59986;SDS011;46181;51.498;5.392;2022-10-16T08:32:18;2.952;;;1.38;;
59986;SDS011;46181;51.498;5.392;2022-10-16T08:36:48;3.707999;;;1.436;;
59986;SDS011;46181;51.498;5.392;2022-10-16T08:41:22;3.479999;;;1.272;;
59986;SDS011;46181;51.498;5.392;2022-10-16T08:45:51;3.8;;;1.412;;
59986;SDS011;46181;51.498;5.392;2022-10-16T08:50:18;4.02;;;1.532;;
59986;SDS011;46181;51.498;5.392;2022-10-16T08:54:49;2.932;;;1.16;;
59986;SDS011;46181;51.498;5.392;2022-10-16T08:59:18;5.604;;;1.208;;
59986;SDS011;46181;51.498;5.392;2022-10-16T09:08:19;5.004001;;;1.34;;
59986;SDS011;46181;51.498;5.392;2022-10-16T09:12:49;3.84;;;1.208;;
59986;SDS011;46181;51.498;5.392;2022-10-16T09:17:24;5.679999;;;1.368;;
59986;SDS011;46181;51.498;5.392;2022-10-16T09:21:48;6.799999;;;1.268;;
59986;SDS011;46181;51.498;5.392;2022-10-16T09:26:18;6.548;;;1.392;;
59986;SDS011;46181;51.498;5.392;2022-10-16T09:30:48;4.824;;;1.304;;
59986;SDS011;46181;51.498;5.392;2022-10-16T09:35:19;4.684;;;1.1;;
59986;SDS011;46181;51.498;5.392;2022-10-16T09:39:48;5.392;;;1.4;;
59986;SDS011;46181;51.498;5.392;2022-10-16T09:44:21;6.468;;;1.48;;
59986;SDS011;46181;51.498;5.392;2022-10-16T09:48:48;5.56;;;1.168;;
59986;SDS011;46181;51.498;5.392;2022-10-16T09:53:18;4.996001;;;1.116;;
59986;SDS011;46181;51.498;5.392;2022-10-16T09:57:54;6.836001;;;1.22;;
59986;SDS011;46181;51.498;5.392;2022-10-16T10:02:18;6.092;;;1.26;;
59986;SDS011;46181;51.498;5.392;2022-10-16T10:06:48;7.735998;;;1.12;;
59986;SDS011;46181;51.498;5.392;2022-10-16T10:11:18;6.676001;;;1.564;;
59986;SDS011;46181;51.498;5.392;2022-10-16T10:15:48;4.928;;;1.112;;
59986;SDS011;46181;51.498;5.392;2022-10-16T10:20:21;5.976;;;1.328;;
59986;SDS011;46181;51.498;5.392;2022-10-16T10:24:48;10.428;;;1.46;;
59986;SDS011;46181;51.498;5.392;2022-10-16T10:29:18;5.456;;;1.132;;
59986;SDS011;46181;51.498;5.392;2022-10-16T10:33:48;5.287999;;;1.044;;
59986;SDS011;46181;51.498;5.392;2022-10-16T10:38:20;8.708001;;;1.464;;
59986;SDS011;46181;51.498;5.392;2022-10-16T10:42:48;8.820001;;;1.52;;
59986;SDS011;46181;51.498;5.392;2022-10-16T10:47:20;7.664001;;;1.34;;
59986;SDS011;46181;51.498;5.392;2022-10-16T10:51:49;10.464;;;1.308;;
59986;SDS011;46181;51.498;5.392;2022-10-16T10:56:20;9.576;;;1.484;;
59986;SDS011;46181;51.498;5.392;2022-10-16T11:00:50;7.176001;;;1.548;;
59986;SDS011;46181;51.498;5.392;2022-10-16T11:05:27;6.900001;;;1.44;;
59986;SDS011;46181;51.498;5.392;2022-10-16T11:09:48;9.048;;;1.284;;
59986;SDS011;46181;51.498;5.392;2022-10-16T11:14:19;8.764;;;1.372;;
59986;SDS011;46181;51.498;5.392;2022-10-16T11:18:49;7.160001;;;1.316;;
59986;SDS011;46181;51.498;5.392;2022-10-16T11:23:20;8.487999;;;1.272;;
59986;SDS011;46181;51.498;5.392;2022-10-16T11:27:49;7.251999;;;1.156;;
59986;SDS011;46181;51.498;5.392;2022-10-16T11:32:20;6.936;;;1.316;;
59986;SDS011;46181;51.498;5.392;2022-10-16T11:36:49;6.888001;;;1.18;;
59986;SDS011;46181;51.498;5.392;2022-10-16T11:41:20;8.119999;;;1.24;;
59986;SDS011;46181;51.498;5.392;2022-10-16T11:45:48;5.744;;;1.156;;
59986;SDS011;46181;51.498;5.392;2022-10-16T11:50:20;6.668;;;1.092;;
59986;SDS011;46181;51.498;5.392;2022-10-16T11:54:49;6.676001;;;1.276;;
59986;SDS011;46181;51.498;5.392;2022-10-16T11:59:19;5.592;;;1.036;;
59986;SDS011;46181;51.498;5.392;2022-10-16T12:03:50;6.960001;;;1.144;;
59986;SDS011;46181;51.498;5.392;2022-10-16T12:08:18;6.984;;;1.328;;
59986;SDS011;46181;51.498;5.392;2022-10-16T12:12:48;5.587999;;;1.128;;
59986;SDS011;46181;51.498;5.392;2022-10-16T12:17:34;7.152001;;;1.04;;
59986;SDS011;46181;51.498;5.392;2022-10-16T12:21:48;7.784;;;1.328;;
59986;SDS011;46181;51.498;5.392;2022-10-16T12:26:18;5.876;;;1.288;;
59986;SDS011;46181;51.498;5.392;2022-10-16T12:30:51;3.92;;;0.9;;
59986;SDS011;46181;51.498;5.392;2022-10-16T12:35:21;6.644;;;1.112;;
59986;SDS011;46181;51.498;5.392;2022-10-16T12:39:48;5.236;;;1.228;;
59986;SDS011;46181;51.498;5.392;2022-10-16T12:44:25;4.216001;;;1;;
59986;SDS011;46181;51.498;5.392;2022-10-16T12:48:48;5.42;;;1.084;;
59986;SDS011;46181;51.498;5.392;2022-10-16T12:53:21;4.323999;;;1.156;;
59986;SDS011;46181;51.498;5.392;2022-10-16T12:57:50;3.68;;;0.796;;
59986;SDS011;46181;51.498;5.392;2022-10-16T13:02:35;4.923999;;;0.892;;
59986;SDS011;46181;51.498;5.392;2022-10-16T13:06:49;4.187999;;;1.044;;
59986;SDS011;46181;51.498;5.392;2022-10-16T13:11:20;4.460001;;;0.972;;
59986;SDS011;46181;51.498;5.392;2022-10-16T13:16:01;4.576;;;1.296;;
59986;SDS011;46181;51.498;5.392;2022-10-16T13:20:21;4.924;;;0.768;;
59986;SDS011;46181;51.498;5.392;2022-10-16T13:24:53;5.364;;;1.072;;
59986;SDS011;46181;51.498;5.392;2022-10-16T13:29:18;4.564;;;0.916;;
59986;SDS011;46181;51.498;5.392;2022-10-16T13:33:49;4.072;;;0.832;;
59986;SDS011;46181;51.498;5.392;2022-10-16T13:38:19;3.808001;;;0.856;;
59986;SDS011;46181;51.498;5.392;2022-10-16T13:42:48;5.14;;;1.076;;
59986;SDS011;46181;51.498;5.392;2022-10-16T13:47:19;3.988;;;0.824;;
59986;SDS011;46181;51.498;5.392;2022-10-16T13:51:58;5.228001;;;0.944;;
59986;SDS011;46181;51.498;5.392;2022-10-16T13:56:19;4.888;;;1.016;;
59986;SDS011;46181;51.498;5.392;2022-10-16T14:00:56;4.239999;;;0.888;;
59986;SDS011;46181;51.498;5.392;2022-10-16T14:05:18;5.34;;;0.992;;
59986;SDS011;46181;51.498;5.392;2022-10-16T14:09:48;5.827999;;;1.084;;
59986;SDS011;46181;51.498;5.392;2022-10-16T14:14:18;3.715999;;;0.808;;
59986;SDS011;46181;51.498;5.392;2022-10-16T14:18:49;3.26;;;0.756;;
59986;SDS011;46181;51.498;5.392;2022-10-16T14:23:29;4.452;;;0.9;;
59986;SDS011;46181;51.498;5.392;2022-10-16T14:27:55;4.416;;;0.92;;
59986;SDS011;46181;51.498;5.392;2022-10-16T14:32:24;3.364;;;0.704;;
59986;SDS011;46181;51.498;5.392;2022-10-16T14:36:48;4.840001;;;0.904;;
59986;SDS011;46181;51.498;5.392;2022-10-16T14:41:19;2.688;;;0.84;;
59986;SDS011;46181;51.498;5.392;2022-10-16T14:45:49;4.992;;;1.176;;
59986;SDS011;46181;51.498;5.392;2022-10-16T14:50:18;3.008;;;0.8;;
59986;SDS011;46181;51.498;5.392;2022-10-16T14:54:51;3.583999;;;0.808;;
59986;SDS011;46181;51.498;5.392;2022-10-16T14:59:19;4.071999;;;0.9;;
59986;SDS011;46181;51.498;5.392;2022-10-16T15:03:48;3.008;;;0.9;;
59986;SDS011;46181;51.498;5.392;2022-10-16T15:08:18;3.12;;;0.9;;
59986;SDS011;46181;51.498;5.392;2022-10-16T15:12:48;3.731999;;;0.944;;
59986;SDS011;46181;51.498;5.392;2022-10-16T15:17:18;4.268;;;0.98;;
59986;SDS011;46181;51.498;5.392;2022-10-16T15:21:48;6.396;;;0.908;;
59986;SDS011;46181;51.498;5.392;2022-10-16T15:26:18;3.58;;;1.124;;
59986;SDS011;46181;51.498;5.392;2022-10-16T15:30:48;3.448;;;0.956;;
59986;SDS011;46181;51.498;5.392;2022-10-16T15:35:18;3.628001;;;0.9;;
59986;SDS011;46181;51.498;5.392;2022-10-16T15:39:48;2.652;;;1;;
59986;SDS011;46181;51.498;5.392;2022-10-16T15:44:18;4.068;;;1.284;;
59986;SDS011;46181;51.498;5.392;2022-10-16T15:48:48;3.016;;;0.992;;
59986;SDS011;46181;51.498;5.392;2022-10-16T15:53:18;2.7;;;0.92;;
59986;SDS011;46181;51.498;5.392;2022-10-16T15:57:48;3.24;;;1.408;;
59986;SDS011;46181;51.498;5.392;2022-10-16T16:02:18;3.736;;;1.268;;
59986;SDS011;46181;51.498;5.392;2022-10-16T16:06:48;6.836;;;1.216;;
59986;SDS011;46181;51.498;5.392;2022-10-16T16:11:18;4.351999;;;1.072;;
59986;SDS011;46181;51.498;5.392;2022-10-16T16:15:48;3.776001;;;1.568;;
59986;SDS011;46181;51.498;5.392;2022-10-16T16:20:18;7.504;;;3.168;;
59986;SDS011;46181;51.498;5.392;2022-10-16T16:24:48;6.436;;;1.708;;
59986;SDS011;46181;51.498;5.392;2022-10-16T16:29:18;6.14;;;2.316;;
59986;SDS011;46181;51.498;5.392;2022-10-16T16:33:48;5.944001;;;2.132;;
59986;SDS011;46181;51.498;5.392;2022-10-16T16:38:18;6.62;;;2.504;;
59986;SDS011;46181;51.498;5.392;2022-10-16T16:42:48;6.891999;;;2.024;;
59986;SDS011;46181;51.498;5.392;2022-10-16T16:47:18;3.1;;;1.296;;
59986;SDS011;46181;51.498;5.392;2022-10-16T16:51:48;4.208;;;1.356;;
59986;SDS011;46181;51.498;5.392;2022-10-16T16:56:19;6.783999;;;2.576;;
59986;SDS011;46181;51.498;5.392;2022-10-16T17:00:48;4.759999;;;3.34;;
59986;SDS011;46181;51.498;5.392;2022-10-16T17:05:18;7.579999;;;2.504;;
59986;SDS011;46181;51.498;5.392;2022-10-16T17:09:48;8.5;;;4.24;;
59986;SDS011;46181;51.498;5.392;2022-10-16T17:14:18;4.804;;;2.332;;
59986;SDS011;46181;51.498;5.392;2022-10-16T17:18:48;5.388;;;3.488;;
59986;SDS011;46181;51.498;5.392;2022-10-16T17:23:18;5.872;;;2.092;;
59986;SDS011;46181;51.498;5.392;2022-10-16T17:27:48;6.480001;;;2.18;;
59986;SDS011;46181;51.498;5.392;2022-10-16T17:32:18;4.984;;;2.599999;;
59986;SDS011;46181;51.498;5.392;2022-10-16T17:36:48;4.739999;;;1.92;;
59986;SDS011;46181;51.498;5.392;2022-10-16T17:41:18;5.136;;;2.132;;
59986;SDS011;46181;51.498;5.392;2022-10-16T17:45:48;5.240001;;;2.116;;
59986;SDS011;46181;51.498;5.392;2022-10-16T17:50:18;4.972;;;2.272;;
59986;SDS011;46181;51.498;5.392;2022-10-16T17:54:48;5.544;;;2.628;;
59986;SDS011;46181;51.498;5.392;2022-10-16T17:59:18;6.680001;;;3.083999;;
59986;SDS011;46181;51.498;5.392;2022-10-16T18:03:51;6.932001;;;2.876001;;
59986;SDS011;46181;51.498;5.392;2022-10-16T18:08:18;6.216;;;2.648;;
59986;SDS011;46181;51.498;5.392;2022-10-16T18:12:48;5.928;;;2.5;;
59986;SDS011;46181;51.498;5.392;2022-10-16T18:17:18;6.543999;;;2.507999;;
59986;SDS011;46181;51.498;5.392;2022-10-16T18:21:48;8.328;;;3.232;;
59986;SDS011;46181;51.498;5.392;2022-10-16T18:26:18;10.608;;;3.516;;
59986;SDS011;46181;51.498;5.392;2022-10-16T18:30:48;8.4;;;3.495999;;
59986;SDS011;46181;51.498;5.392;2022-10-16T18:35:18;6.116;;;3.292;;
59986;SDS011;46181;51.498;5.392;2022-10-16T18:39:48;6.852001;;;3.720001;;
59986;SDS011;46181;51.498;5.392;2022-10-16T18:44:18;10.36;;;5.216001;;
59986;SDS011;46181;51.498;5.392;2022-10-16T18:48:48;6.824;;;3.792001;;
59986;SDS011;46181;51.498;5.392;2022-10-16T18:53:18;8.715999;;;4.5;;
59986;SDS011;46181;51.498;5.392;2022-10-16T18:57:48;10.376;;;5.784001;;
59986;SDS011;46181;51.498;5.392;2022-10-16T19:02:18;9.096;;;4.76;;
59986;SDS011;46181;51.498;5.392;2022-10-16T19:06:48;9.892001;;;3.88;;
59986;SDS011;46181;51.498;5.392;2022-10-16T19:11:19;10.876;;;4.28;;
59986;SDS011;46181;51.498;5.392;2022-10-16T19:15:48;7.092001;;;4.111999;;
59986;SDS011;46181;51.498;5.392;2022-10-16T19:20:18;7.716001;;;4.304001;;
59986;SDS011;46181;51.498;5.392;2022-10-16T19:24:48;7.312;;;4.844001;;
59986;SDS011;46181;51.498;5.392;2022-10-16T19:29:18;8.587999;;;4.123999;;
59986;SDS011;46181;51.498;5.392;2022-10-16T19:33:49;6.795999;;;3.988;;
59986;SDS011;46181;51.498;5.392;2022-10-16T19:38:18;6.808001;;;4.087999;;
59986;SDS011;46181;51.498;5.392;2022-10-16T19:42:49;9.472001;;;4.412001;;
59986;SDS011;46181;51.498;5.392;2022-10-16T19:47:18;6.811999;;;4.096;;
59986;SDS011;46181;51.498;5.392;2022-10-16T19:51:49;8.211999;;;4.220001;;
59986;SDS011;46181;51.498;5.392;2022-10-16T19:56:19;10.832;;;4.472;;
59986;SDS011;46181;51.498;5.392;2022-10-16T20:00:48;9.612;;;4.476;;
59986;SDS011;46181;51.498;5.392;2022-10-16T20:05:18;10.16;;;4.868;;
59986;SDS011;46181;51.498;5.392;2022-10-16T20:09:48;9.34;;;4.776001;;
59986;SDS011;46181;51.498;5.392;2022-10-16T20:14:18;7.484;;;4.635999;;
59986;SDS011;46181;51.498;5.392;2022-10-16T20:18:48;7.492002;;;5.088;;
59986;SDS011;46181;51.498;5.392;2022-10-16T20:23:18;10.276;;;5.356;;
59986;SDS011;46181;51.498;5.392;2022-10-16T20:27:48;7.880001;;;5.252;;
59986;SDS011;46181;51.498;5.392;2022-10-16T20:32:18;7.168001;;;4.856;;
59986;SDS011;46181;51.498;5.392;2022-10-16T20:36:48;8.071999;;;4.972;;
59986;SDS011;46181;51.498;5.392;2022-10-16T20:41:18;9.004001;;;4.956;;
59986;SDS011;46181;51.498;5.392;2022-10-16T20:45:57;8.203999;;;5.268001;;
59986;SDS011;46181;51.498;5.392;2022-10-16T20:50:18;8.887999;;;5.268001;;
59986;SDS011;46181;51.498;5.392;2022-10-16T20:54:48;7.800001;;;5.171999;;
59986;SDS011;46181;51.498;5.392;2022-10-16T20:59:18;8.448002;;;5.683999;;
59986;SDS011;46181;51.498;5.392;2022-10-16T21:03:52;10.78;;;5.904001;;
59986;SDS011;46181;51.498;5.392;2022-10-16T21:08:18;9.248;;;5.984;;
59986;SDS011;46181;51.498;5.392;2022-10-16T21:12:48;9.100001;;;5.408;;
59986;SDS011;46181;51.498;5.392;2022-10-16T21:17:18;8.376;;;5.328001;;
59986;SDS011;46181;51.498;5.392;2022-10-16T21:21:50;10.156;;;5.408;;
59986;SDS011;46181;51.498;5.392;2022-10-16T21:26:19;10.036;;;5.38;;
59986;SDS011;46181;51.498;5.392;2022-10-16T21:30:48;9.344;;;5.248001;;
59986;SDS011;46181;51.498;5.392;2022-10-16T21:35:18;9.971999;;;5.916;;
59986;SDS011;46181;51.498;5.392;2022-10-16T21:39:48;8.64;;;5.735999;;
59986;SDS011;46181;51.498;5.392;2022-10-16T21:44:18;8.884;;;5.332001;;
59986;SDS011;46181;51.498;5.392;2022-10-16T21:48:50;7.352;;;5.512;;
59986;SDS011;46181;51.498;5.392;2022-10-16T21:53:18;8.524;;;5.884001;;
59986;SDS011;46181;51.498;5.392;2022-10-16T21:57:48;10.572;;;5.836;;
59986;SDS011;46181;51.498;5.392;2022-10-16T22:02:18;11.872;;;5.524;;
59986;SDS011;46181;51.498;5.392;2022-10-16T22:06:48;8.44;;;5.588;;
59986;SDS011;46181;51.498;5.392;2022-10-16T22:11:19;8.032001;;;5.760001;;
59986;SDS011;46181;51.498;5.392;2022-10-16T22:15:51;8.815999;;;5.716;;
59986;SDS011;46181;51.498;5.392;2022-10-16T22:20:18;9.412;;;6.232001;;
59986;SDS011;46181;51.498;5.392;2022-10-16T22:24:48;7.716001;;;6.004;;
59986;SDS011;46181;51.498;5.392;2022-10-16T22:29:18;10.096;;;5.904001;;
59986;SDS011;46181;51.498;5.392;2022-10-16T22:33:51;9.716;;;5.715999;;
59986;SDS011;46181;51.498;5.392;2022-10-16T22:38:18;8.1;;;5.756;;
59986;SDS011;46181;51.498;5.392;2022-10-16T22:42:48;10.172;;;5.468;;
59986;SDS011;46181;51.498;5.392;2022-10-16T22:47:18;8.36;;;5.312001;;
59986;SDS011;46181;51.498;5.392;2022-10-16T22:51:48;8.844;;;5.752001;;
59986;SDS011;46181;51.498;5.392;2022-10-16T22:56:19;9.252;;;5.864001;;
59986;SDS011;46181;51.498;5.392;2022-10-16T23:00:48;8.612;;;5.472001;;
59986;SDS011;46181;51.498;5.392;2022-10-16T23:05:18;7.648;;;5.244001;;
59986;SDS011;46181;51.498;5.392;2022-10-16T23:09:48;7.892;;;5.224001;;
59986;SDS011;46181;51.498;5.392;2022-10-16T23:14:22;9.167999;;;5.352001;;
59986;SDS011;46181;51.498;5.392;2022-10-16T23:18:48;8;;;5.532;;
59986;SDS011;46181;51.498;5.392;2022-10-16T23:23:18;8.624001;;;5.764001;;
59986;SDS011;46181;51.498;5.392;2022-10-16T23:27:48;7.68;;;5.631999;;
59986;SDS011;46181;51.498;5.392;2022-10-16T23:32:18;7.532001;;;5.452001;;
59986;SDS011;46181;51.498;5.392;2022-10-16T23:36:48;9.896;;;5.800001;;
59986;SDS011;46181;51.498;5.392;2022-10-16T23:41:18;9.224002;;;5.568;;
59986;SDS011;46181;51.498;5.392;2022-10-16T23:45:48;9.128;;;5.340001;;
59986;SDS011;46181;51.498;5.392;2022-10-16T23:50:18;8.808;;;5.46;;
59986;SDS011;46181;51.498;5.392;2022-10-16T23:54:48;7.916;;;5.220001;;
59986;SDS011;46181;51.498;5.392;2022-10-16T23:59:18;7.432;;;5.44;;
